In Rescue
 
Open Full Screen Window  High Contrast Mode
Wind Gusting 20 knots
13
March 01, 2024 3:48 PM CST
Weather Information
Wind Direction
  230 °
Wind Speed
  13 kt (15 mph)
Wind Gust
  20 kt (23 mph)
Altimeter
29.68 in
Visibility
10 SM
Temperature
17° C
63° F
Dewpoint
03° C
37° F
Humidity
39%
Sky Condition
Clear
VFR

METAR KDXX 012148Z AUTO 23013G20KT 10SM CLR 17/03 A2968 RMK AO2

FAA Disclaimer: The data displayed is for advisory purposes only and is not to be used for flight planning or operations.